sensor_id;sensor_type;location;lat;lon;timestamp;P1;durP1;ratioP1;P2;durP2;ratioP2
5704;SDS011;2877;48.238;11.160;2024-03-07T00:01:23;15.20;;;10.10;;
5704;SDS011;2877;48.238;11.160;2024-03-07T00:03:51;14.50;;;9.00;;
5704;SDS011;2877;48.238;11.160;2024-03-07T00:06:17;13.77;;;9.20;;
5704;SDS011;2877;48.238;11.160;2024-03-07T00:08:42;13.63;;;9.07;;
5704;SDS011;2877;48.238;11.160;2024-03-07T00:11:08;14.70;;;9.40;;
5704;SDS011;2877;48.238;11.160;2024-03-07T00:13:34;13.33;;;9.27;;
5704;SDS011;2877;48.238;11.160;2024-03-07T00:16:00;12.80;;;9.73;;
5704;SDS011;2877;48.238;11.160;2024-03-07T00:18:26;14.77;;;9.60;;
5704;SDS011;2877;48.238;11.160;2024-03-07T00:20:52;13.60;;;9.80;;
5704;SDS011;2877;48.238;11.160;2024-03-07T00:23:19;16.17;;;10.17;;
5704;SDS011;2877;48.238;11.160;2024-03-07T00:25:45;16.03;;;10.23;;
5704;SDS011;2877;48.238;11.160;2024-03-07T00:28:14;15.17;;;9.57;;
5704;SDS011;2877;48.238;11.160;2024-03-07T00:30:42;13.90;;;10.00;;
5704;SDS011;2877;48.238;11.160;2024-03-07T00:33:09;15.40;;;10.03;;
5704;SDS011;2877;48.238;11.160;2024-03-07T00:35:35;16.10;;;9.83;;
5704;SDS011;2877;48.238;11.160;2024-03-07T00:38:01;13.77;;;9.63;;
5704;SDS011;2877;48.238;11.160;2024-03-07T00:40:27;23.60;;;11.00;;
5704;SDS011;2877;48.238;11.160;2024-03-07T00:42:53;17.10;;;10.50;;
5704;SDS011;2877;48.238;11.160;2024-03-07T00:45:18;15.53;;;10.17;;
5704;SDS011;2877;48.238;11.160;2024-03-07T00:47:44;15.80;;;10.47;;
5704;SDS011;2877;48.238;11.160;2024-03-07T00:50:09;15.90;;;9.83;;
5704;SDS011;2877;48.238;11.160;2024-03-07T00:52:35;17.20;;;10.63;;
5704;SDS011;2877;48.238;11.160;2024-03-07T00:55:01;14.27;;;9.53;;
5704;SDS011;2877;48.238;11.160;2024-03-07T00:57:27;14.67;;;10.00;;
5704;SDS011;2877;48.238;11.160;2024-03-07T00:59:52;15.60;;;10.10;;
5704;SDS011;2877;48.238;11.160;2024-03-07T01:02:18;17.27;;;11.33;;
5704;SDS011;2877;48.238;11.160;2024-03-07T01:04:44;17.00;;;11.23;;
5704;SDS011;2877;48.238;11.160;2024-03-07T01:07:09;19.47;;;11.50;;
5704;SDS011;2877;48.238;11.160;2024-03-07T01:09:35;20.90;;;12.07;;
5704;SDS011;2877;48.238;11.160;2024-03-07T01:12:02;19.40;;;10.97;;
5704;SDS011;2877;48.238;11.160;2024-03-07T01:14:30;14.60;;;10.10;;
5704;SDS011;2877;48.238;11.160;2024-03-07T01:16:56;17.57;;;10.60;;
5704;SDS011;2877;48.238;11.160;2024-03-07T01:19:21;17.20;;;10.43;;
5704;SDS011;2877;48.238;11.160;2024-03-07T01:21:47;18.23;;;11.27;;
5704;SDS011;2877;48.238;11.160;2024-03-07T01:24:13;17.93;;;11.67;;
5704;SDS011;2877;48.238;11.160;2024-03-07T01:26:42;17.50;;;11.67;;
5704;SDS011;2877;48.238;11.160;2024-03-07T01:29:08;17.23;;;10.97;;
5704;SDS011;2877;48.238;11.160;2024-03-07T01:31:34;17.07;;;10.37;;
5704;SDS011;2877;48.238;11.160;2024-03-07T01:33:59;18.60;;;11.47;;
5704;SDS011;2877;48.238;11.160;2024-03-07T01:36:25;17.70;;;10.23;;
5704;SDS011;2877;48.238;11.160;2024-03-07T01:38:50;17.33;;;10.53;;
5704;SDS011;2877;48.238;11.160;2024-03-07T01:41:16;20.37;;;11.90;;
5704;SDS011;2877;48.238;11.160;2024-03-07T01:43:42;20.53;;;11.37;;
5704;SDS011;2877;48.238;11.160;2024-03-07T01:46:08;17.17;;;10.93;;
5704;SDS011;2877;48.238;11.160;2024-03-07T01:48:35;19.80;;;12.20;;
5704;SDS011;2877;48.238;11.160;2024-03-07T01:51:03;24.37;;;12.77;;
5704;SDS011;2877;48.238;11.160;2024-03-07T01:53:29;20.00;;;11.90;;
5704;SDS011;2877;48.238;11.160;2024-03-07T01:55:56;19.93;;;12.40;;
5704;SDS011;2877;48.238;11.160;2024-03-07T01:58:22;20.50;;;12.33;;
5704;SDS011;2877;48.238;11.160;2024-03-07T02:00:49;22.93;;;12.00;;
5704;SDS011;2877;48.238;11.160;2024-03-07T02:03:15;21.27;;;12.30;;
5704;SDS011;2877;48.238;11.160;2024-03-07T02:05:41;20.30;;;12.50;;
5704;SDS011;2877;48.238;11.160;2024-03-07T02:08:07;21.87;;;12.80;;
5704;SDS011;2877;48.238;11.160;2024-03-07T02:10:32;19.83;;;12.17;;
5704;SDS011;2877;48.238;11.160;2024-03-07T02:12:58;23.70;;;13.80;;
5704;SDS011;2877;48.238;11.160;2024-03-07T02:15:25;25.80;;;14.00;;
5704;SDS011;2877;48.238;11.160;2024-03-07T02:17:51;29.40;;;13.50;;
5704;SDS011;2877;48.238;11.160;2024-03-07T02:20:17;23.73;;;12.80;;
5704;SDS011;2877;48.238;11.160;2024-03-07T02:22:43;23.40;;;13.53;;
5704;SDS011;2877;48.238;11.160;2024-03-07T02:25:08;22.63;;;12.30;;
5704;SDS011;2877;48.238;11.160;2024-03-07T02:27:37;22.47;;;13.50;;
5704;SDS011;2877;48.238;11.160;2024-03-07T02:30:03;26.73;;;13.97;;
5704;SDS011;2877;48.238;11.160;2024-03-07T02:32:33;24.60;;;12.60;;
5704;SDS011;2877;48.238;11.160;2024-03-07T02:34:59;24.83;;;13.20;;
5704;SDS011;2877;48.238;11.160;2024-03-07T02:37:24;21.70;;;13.27;;
5704;SDS011;2877;48.238;11.160;2024-03-07T02:39:50;23.83;;;13.20;;
5704;SDS011;2877;48.238;11.160;2024-03-07T02:42:15;22.63;;;12.80;;
5704;SDS011;2877;48.238;11.160;2024-03-07T02:44:41;22.57;;;12.53;;
5704;SDS011;2877;48.238;11.160;2024-03-07T02:47:06;23.30;;;12.63;;
5704;SDS011;2877;48.238;11.160;2024-03-07T02:49:32;27.37;;;14.17;;
5704;SDS011;2877;48.238;11.160;2024-03-07T02:51:58;27.40;;;14.27;;
5704;SDS011;2877;48.238;11.160;2024-03-07T02:54:24;37.60;;;13.67;;
5704;SDS011;2877;48.238;11.160;2024-03-07T02:56:49;27.40;;;13.60;;
5704;SDS011;2877;48.238;11.160;2024-03-07T02:59:15;29.53;;;16.13;;
5704;SDS011;2877;48.238;11.160;2024-03-07T03:01:41;29.53;;;16.00;;
5704;SDS011;2877;48.238;11.160;2024-03-07T03:04:07;25.80;;;14.80;;
5704;SDS011;2877;48.238;11.160;2024-03-07T03:06:32;33.80;;;16.67;;
5704;SDS011;2877;48.238;11.160;2024-03-07T03:08:58;29.97;;;16.63;;
5704;SDS011;2877;48.238;11.160;2024-03-07T03:11:24;33.67;;;16.63;;
5704;SDS011;2877;48.238;11.160;2024-03-07T03:13:50;36.73;;;18.17;;
5704;SDS011;2877;48.238;11.160;2024-03-07T03:16:16;34.37;;;17.43;;
5704;SDS011;2877;48.238;11.160;2024-03-07T03:18:42;41.90;;;19.20;;
5704;SDS011;2877;48.238;11.160;2024-03-07T03:21:08;35.17;;;17.40;;
5704;SDS011;2877;48.238;11.160;2024-03-07T03:23:34;35.40;;;18.17;;
5704;SDS011;2877;48.238;11.160;2024-03-07T03:25:59;35.00;;;19.10;;
5704;SDS011;2877;48.238;11.160;2024-03-07T03:28:25;36.07;;;18.27;;
5704;SDS011;2877;48.238;11.160;2024-03-07T03:30:51;36.13;;;17.87;;
5704;SDS011;2877;48.238;11.160;2024-03-07T03:33:17;33.20;;;18.33;;
5704;SDS011;2877;48.238;11.160;2024-03-07T03:35:43;43.13;;;20.27;;
5704;SDS011;2877;48.238;11.160;2024-03-07T03:38:09;38.37;;;19.33;;
5704;SDS011;2877;48.238;11.160;2024-03-07T03:40:35;35.50;;;19.70;;
5704;SDS011;2877;48.238;11.160;2024-03-07T03:43:01;39.87;;;21.00;;
5704;SDS011;2877;48.238;11.160;2024-03-07T03:45:27;38.17;;;20.77;;
5704;SDS011;2877;48.238;11.160;2024-03-07T03:47:53;38.83;;;21.17;;
5704;SDS011;2877;48.238;11.160;2024-03-07T03:50:19;43.43;;;23.07;;
5704;SDS011;2877;48.238;11.160;2024-03-07T03:52:45;39.93;;;21.47;;
5704;SDS011;2877;48.238;11.160;2024-03-07T03:55:11;43.30;;;22.40;;
5704;SDS011;2877;48.238;11.160;2024-03-07T03:57:38;40.40;;;21.60;;
5704;SDS011;2877;48.238;11.160;2024-03-07T04:00:05;49.07;;;24.30;;
5704;SDS011;2877;48.238;11.160;2024-03-07T04:02:44;43.03;;;22.60;;
5704;SDS011;2877;48.238;11.160;2024-03-07T04:05:15;50.33;;;24.43;;
5704;SDS011;2877;48.238;11.160;2024-03-07T04:07:43;48.77;;;26.27;;
5704;SDS011;2877;48.238;11.160;2024-03-07T04:10:09;46.10;;;24.57;;
5704;SDS011;2877;48.238;11.160;2024-03-07T04:12:36;48.43;;;25.00;;
5704;SDS011;2877;48.238;11.160;2024-03-07T04:15:06;56.03;;;26.40;;
5704;SDS011;2877;48.238;11.160;2024-03-07T04:17:33;55.03;;;28.43;;
5704;SDS011;2877;48.238;11.160;2024-03-07T04:20:00;47.60;;;24.40;;
5704;SDS011;2877;48.238;11.160;2024-03-07T04:22:26;51.40;;;26.63;;
5704;SDS011;2877;48.238;11.160;2024-03-07T04:24:52;53.70;;;26.47;;
5704;SDS011;2877;48.238;11.160;2024-03-07T04:27:21;49.30;;;25.63;;
5704;SDS011;2877;48.238;11.160;2024-03-07T04:29:47;46.00;;;25.70;;
5704;SDS011;2877;48.238;11.160;2024-03-07T04:32:13;51.73;;;25.67;;
5704;SDS011;2877;48.238;11.160;2024-03-07T04:34:38;47.70;;;25.53;;
5704;SDS011;2877;48.238;11.160;2024-03-07T04:37:04;45.00;;;24.60;;
5704;SDS011;2877;48.238;11.160;2024-03-07T04:39:30;47.10;;;25.50;;
5704;SDS011;2877;48.238;11.160;2024-03-07T04:41:59;46.07;;;24.33;;
5704;SDS011;2877;48.238;11.160;2024-03-07T04:44:28;54.10;;;25.60;;
5704;SDS011;2877;48.238;11.160;2024-03-07T04:46:54;48.77;;;25.07;;
5704;SDS011;2877;48.238;11.160;2024-03-07T04:49:22;52.93;;;25.67;;
5704;SDS011;2877;48.238;11.160;2024-03-07T04:51:52;51.73;;;25.27;;
5704;SDS011;2877;48.238;11.160;2024-03-07T04:54:21;49.17;;;25.53;;
5704;SDS011;2877;48.238;11.160;2024-03-07T04:56:48;50.40;;;27.10;;
5704;SDS011;2877;48.238;11.160;2024-03-07T04:59:14;48.87;;;26.43;;
5704;SDS011;2877;48.238;11.160;2024-03-07T05:01:41;48.60;;;25.90;;
5704;SDS011;2877;48.238;11.160;2024-03-07T05:04:07;57.70;;;26.50;;
5704;SDS011;2877;48.238;11.160;2024-03-07T05:06:33;56.53;;;27.57;;
5704;SDS011;2877;48.238;11.160;2024-03-07T05:09:00;54.33;;;26.53;;
5704;SDS011;2877;48.238;11.160;2024-03-07T05:11:29;56.80;;;27.07;;
5704;SDS011;2877;48.238;11.160;2024-03-07T05:13:56;49.50;;;25.33;;
5704;SDS011;2877;48.238;11.160;2024-03-07T05:16:23;55.33;;;26.20;;
5704;SDS011;2877;48.238;11.160;2024-03-07T05:18:55;53.37;;;26.10;;
5704;SDS011;2877;48.238;11.160;2024-03-07T05:21:24;49.37;;;25.00;;
5704;SDS011;2877;48.238;11.160;2024-03-07T05:24:05;53.87;;;26.83;;
5704;SDS011;2877;48.238;11.160;2024-03-07T05:26:32;51.43;;;26.43;;
5704;SDS011;2877;48.238;11.160;2024-03-07T05:29:03;50.80;;;24.80;;
5704;SDS011;2877;48.238;11.160;2024-03-07T05:31:33;51.33;;;25.70;;
5704;SDS011;2877;48.238;11.160;2024-03-07T05:33:59;49.07;;;25.80;;
5704;SDS011;2877;48.238;11.160;2024-03-07T05:36:28;54.17;;;26.33;;
5704;SDS011;2877;48.238;11.160;2024-03-07T05:38:55;52.37;;;27.13;;
5704;SDS011;2877;48.238;11.160;2024-03-07T05:41:21;53.60;;;26.93;;
5704;SDS011;2877;48.238;11.160;2024-03-07T05:43:46;55.83;;;27.70;;
5704;SDS011;2877;48.238;11.160;2024-03-07T05:46:12;50.80;;;25.50;;
5704;SDS011;2877;48.238;11.160;2024-03-07T05:48:37;54.00;;;26.30;;
5704;SDS011;2877;48.238;11.160;2024-03-07T05:51:03;52.80;;;26.80;;
5704;SDS011;2877;48.238;11.160;2024-03-07T05:53:29;48.67;;;25.60;;
5704;SDS011;2877;48.238;11.160;2024-03-07T05:55:54;50.20;;;25.53;;
5704;SDS011;2877;48.238;11.160;2024-03-07T05:58:20;52.97;;;25.20;;
5704;SDS011;2877;48.238;11.160;2024-03-07T06:00:46;55.50;;;26.40;;
5704;SDS011;2877;48.238;11.160;2024-03-07T06:03:17;45.17;;;25.40;;
5704;SDS011;2877;48.238;11.160;2024-03-07T06:05:48;59.97;;;25.60;;
5704;SDS011;2877;48.238;11.160;2024-03-07T06:08:15;56.23;;;26.20;;
5704;SDS011;2877;48.238;11.160;2024-03-07T06:10:42;56.53;;;26.37;;
5704;SDS011;2877;48.238;11.160;2024-03-07T06:13:08;51.10;;;24.60;;
5704;SDS011;2877;48.238;11.160;2024-03-07T06:15:34;55.43;;;26.23;;
5704;SDS011;2877;48.238;11.160;2024-03-07T06:18:00;49.27;;;24.90;;
5704;SDS011;2877;48.238;11.160;2024-03-07T06:20:26;51.27;;;25.40;;
5704;SDS011;2877;48.238;11.160;2024-03-07T06:22:51;48.50;;;24.93;;
5704;SDS011;2877;48.238;11.160;2024-03-07T06:25:20;50.50;;;26.73;;
5704;SDS011;2877;48.238;11.160;2024-03-07T06:27:58;46.40;;;24.50;;
5704;SDS011;2877;48.238;11.160;2024-03-07T06:30:33;55.07;;;26.27;;
5704;SDS011;2877;48.238;11.160;2024-03-07T06:33:00;46.63;;;25.37;;
5704;SDS011;2877;48.238;11.160;2024-03-07T06:35:26;54.80;;;27.00;;
5704;SDS011;2877;48.238;11.160;2024-03-07T06:37:51;65.00;;;27.83;;
5704;SDS011;2877;48.238;11.160;2024-03-07T06:40:17;51.97;;;26.80;;
5704;SDS011;2877;48.238;11.160;2024-03-07T06:42:46;55.67;;;27.37;;
5704;SDS011;2877;48.238;11.160;2024-03-07T06:45:12;49.70;;;26.13;;
5704;SDS011;2877;48.238;11.160;2024-03-07T06:47:37;56.47;;;26.80;;
5704;SDS011;2877;48.238;11.160;2024-03-07T06:50:03;46.83;;;24.80;;
5704;SDS011;2877;48.238;11.160;2024-03-07T06:52:29;50.83;;;25.23;;
5704;SDS011;2877;48.238;11.160;2024-03-07T06:54:54;53.93;;;26.07;;
5704;SDS011;2877;48.238;11.160;2024-03-07T06:57:21;49.33;;;26.73;;
5704;SDS011;2877;48.238;11.160;2024-03-07T06:59:47;54.20;;;26.53;;
5704;SDS011;2877;48.238;11.160;2024-03-07T07:02:12;52.27;;;26.53;;
5704;SDS011;2877;48.238;11.160;2024-03-07T07:04:38;50.73;;;26.17;;
5704;SDS011;2877;48.238;11.160;2024-03-07T07:07:07;51.17;;;26.50;;
5704;SDS011;2877;48.238;11.160;2024-03-07T07:09:37;52.70;;;25.40;;
5704;SDS011;2877;48.238;11.160;2024-03-07T07:12:03;53.43;;;27.30;;
5704;SDS011;2877;48.238;11.160;2024-03-07T07:14:29;58.13;;;26.83;;
5704;SDS011;2877;48.238;11.160;2024-03-07T07:16:54;59.80;;;27.70;;
5704;SDS011;2877;48.238;11.160;2024-03-07T07:19:21;53.73;;;27.27;;
5704;SDS011;2877;48.238;11.160;2024-03-07T07:21:47;48.97;;;25.23;;
5704;SDS011;2877;48.238;11.160;2024-03-07T07:24:18;50.57;;;26.13;;
5704;SDS011;2877;48.238;11.160;2024-03-07T07:26:48;55.50;;;27.17;;
5704;SDS011;2877;48.238;11.160;2024-03-07T07:29:17;54.57;;;26.30;;
5704;SDS011;2877;48.238;11.160;2024-03-07T07:31:43;52.17;;;27.80;;
5704;SDS011;2877;48.238;11.160;2024-03-07T07:34:10;54.97;;;27.73;;
5704;SDS011;2877;48.238;11.160;2024-03-07T07:36:36;49.23;;;27.17;;
5704;SDS011;2877;48.238;11.160;2024-03-07T07:39:01;50.10;;;26.87;;
5704;SDS011;2877;48.238;11.160;2024-03-07T07:41:28;49.27;;;26.33;;
5704;SDS011;2877;48.238;11.160;2024-03-07T07:43:53;59.43;;;27.27;;
5704;SDS011;2877;48.238;11.160;2024-03-07T07:46:19;51.93;;;27.10;;
5704;SDS011;2877;48.238;11.160;2024-03-07T07:48:45;53.00;;;26.23;;
5704;SDS011;2877;48.238;11.160;2024-03-07T07:51:11;52.33;;;25.60;;
5704;SDS011;2877;48.238;11.160;2024-03-07T07:53:37;52.13;;;27.77;;
5704;SDS011;2877;48.238;11.160;2024-03-07T07:56:03;45.43;;;24.40;;
5704;SDS011;2877;48.238;11.160;2024-03-07T07:58:29;52.40;;;26.33;;
5704;SDS011;2877;48.238;11.160;2024-03-07T08:00:55;54.13;;;26.83;;
5704;SDS011;2877;48.238;11.160;2024-03-07T08:03:20;46.57;;;26.27;;
5704;SDS011;2877;48.238;11.160;2024-03-07T08:05:47;49.17;;;24.87;;
5704;SDS011;2877;48.238;11.160;2024-03-07T08:08:12;45.17;;;24.63;;
5704;SDS011;2877;48.238;11.160;2024-03-07T08:10:41;45.77;;;23.77;;
5704;SDS011;2877;48.238;11.160;2024-03-07T08:13:07;47.93;;;24.30;;
5704;SDS011;2877;48.238;11.160;2024-03-07T08:15:35;43.43;;;25.23;;
5704;SDS011;2877;48.238;11.160;2024-03-07T08:18:01;48.67;;;25.53;;
5704;SDS011;2877;48.238;11.160;2024-03-07T08:20:33;45.50;;;25.40;;
5704;SDS011;2877;48.238;11.160;2024-03-07T08:22:59;43.77;;;24.63;;
5704;SDS011;2877;48.238;11.160;2024-03-07T08:25:26;43.97;;;24.67;;
5704;SDS011;2877;48.238;11.160;2024-03-07T08:27:54;45.13;;;25.30;;
5704;SDS011;2877;48.238;11.160;2024-03-07T08:30:21;44.87;;;23.10;;
5704;SDS011;2877;48.238;11.160;2024-03-07T08:32:51;45.60;;;25.47;;
5704;SDS011;2877;48.238;11.160;2024-03-07T08:35:18;45.87;;;23.97;;
5704;SDS011;2877;48.238;11.160;2024-03-07T08:37:44;43.77;;;23.77;;
5704;SDS011;2877;48.238;11.160;2024-03-07T08:40:11;41.40;;;23.73;;
5704;SDS011;2877;48.238;11.160;2024-03-07T08:42:47;41.87;;;24.10;;
5704;SDS011;2877;48.238;11.160;2024-03-07T08:45:15;43.70;;;24.37;;
5704;SDS011;2877;48.238;11.160;2024-03-07T08:47:44;42.73;;;24.73;;
5704;SDS011;2877;48.238;11.160;2024-03-07T08:50:11;46.13;;;24.30;;
5704;SDS011;2877;48.238;11.160;2024-03-07T08:52:38;40.00;;;22.23;;
5704;SDS011;2877;48.238;11.160;2024-03-07T08:55:09;43.40;;;22.90;;
5704;SDS011;2877;48.238;11.160;2024-03-07T08:57:39;39.50;;;23.10;;
5704;SDS011;2877;48.238;11.160;2024-03-07T09:00:06;42.93;;;23.57;;
5704;SDS011;2877;48.238;11.160;2024-03-07T09:02:39;41.17;;;23.97;;
5704;SDS011;2877;48.238;11.160;2024-03-07T09:05:05;39.53;;;22.70;;
5704;SDS011;2877;48.238;11.160;2024-03-07T09:07:31;41.97;;;23.20;;
5704;SDS011;2877;48.238;11.160;2024-03-07T09:09:57;44.07;;;23.60;;
5704;SDS011;2877;48.238;11.160;2024-03-07T09:12:23;45.10;;;23.60;;
5704;SDS011;2877;48.238;11.160;2024-03-07T09:14:50;41.83;;;24.03;;
5704;SDS011;2877;48.238;11.160;2024-03-07T09:17:21;42.00;;;24.03;;
5704;SDS011;2877;48.238;11.160;2024-03-07T09:19:46;40.50;;;23.60;;
5704;SDS011;2877;48.238;11.160;2024-03-07T09:22:12;38.80;;;23.00;;
5704;SDS011;2877;48.238;11.160;2024-03-07T09:24:37;36.33;;;22.83;;
5704;SDS011;2877;48.238;11.160;2024-03-07T09:27:04;39.37;;;22.33;;
5704;SDS011;2877;48.238;11.160;2024-03-07T09:29:30;36.60;;;21.87;;
5704;SDS011;2877;48.238;11.160;2024-03-07T09:31:55;42.80;;;22.43;;
5704;SDS011;2877;48.238;11.160;2024-03-07T09:34:22;37.80;;;22.00;;
5704;SDS011;2877;48.238;11.160;2024-03-07T09:36:48;35.47;;;21.80;;
5704;SDS011;2877;48.238;11.160;2024-03-07T09:39:16;37.87;;;22.03;;
5704;SDS011;2877;48.238;11.160;2024-03-07T09:41:43;36.43;;;21.43;;
5704;SDS011;2877;48.238;11.160;2024-03-07T09:44:09;37.50;;;21.80;;
5704;SDS011;2877;48.238;11.160;2024-03-07T09:46:40;38.70;;;24.17;;
5704;SDS011;2877;48.238;11.160;2024-03-07T09:49:06;37.73;;;22.20;;
5704;SDS011;2877;48.238;11.160;2024-03-07T09:51:35;40.00;;;22.30;;
5704;SDS011;2877;48.238;11.160;2024-03-07T09:54:01;37.57;;;22.70;;
5704;SDS011;2877;48.238;11.160;2024-03-07T09:56:27;35.70;;;20.73;;
5704;SDS011;2877;48.238;11.160;2024-03-07T09:58:57;36.67;;;22.73;;
5704;SDS011;2877;48.238;11.160;2024-03-07T10:01:26;40.70;;;23.03;;
5704;SDS011;2877;48.238;11.160;2024-03-07T10:03:58;40.63;;;24.03;;
5704;SDS011;2877;48.238;11.160;2024-03-07T10:06:36;42.70;;;24.40;;
5704;SDS011;2877;48.238;11.160;2024-03-07T10:09:04;44.47;;;23.93;;
5704;SDS011;2877;48.238;11.160;2024-03-07T10:11:30;37.43;;;23.63;;
5704;SDS011;2877;48.238;11.160;2024-03-07T10:13:55;45.37;;;21.30;;
5704;SDS011;2877;48.238;11.160;2024-03-07T10:16:21;38.13;;;22.00;;
5704;SDS011;2877;48.238;11.160;2024-03-07T10:18:47;34.87;;;21.73;;
5704;SDS011;2877;48.238;11.160;2024-03-07T10:21:15;35.30;;;21.97;;
5704;SDS011;2877;48.238;11.160;2024-03-07T10:23:44;39.90;;;23.13;;
5704;SDS011;2877;48.238;11.160;2024-03-07T10:26:10;37.63;;;23.27;;
5704;SDS011;2877;48.238;11.160;2024-03-07T10:28:37;38.13;;;21.53;;
5704;SDS011;2877;48.238;11.160;2024-03-07T10:31:03;36.83;;;22.20;;
5704;SDS011;2877;48.238;11.160;2024-03-07T10:33:34;35.67;;;21.57;;
5704;SDS011;2877;48.238;11.160;2024-03-07T10:36:00;35.27;;;21.13;;
5704;SDS011;2877;48.238;11.160;2024-03-07T10:38:26;38.10;;;21.33;;
5704;SDS011;2877;48.238;11.160;2024-03-07T10:40:53;39.07;;;21.33;;
5704;SDS011;2877;48.238;11.160;2024-03-07T10:43:20;34.57;;;21.00;;
5704;SDS011;2877;48.238;11.160;2024-03-07T10:45:47;32.33;;;19.80;;
5704;SDS011;2877;48.238;11.160;2024-03-07T10:48:16;34.30;;;20.63;;
5704;SDS011;2877;48.238;11.160;2024-03-07T10:59:30;29.67;;;19.07;;
5704;SDS011;2877;48.238;11.160;2024-03-07T11:02:01;32.90;;;19.00;;
5704;SDS011;2877;48.238;11.160;2024-03-07T11:04:52;30.10;;;18.30;;
5704;SDS011;2877;48.238;11.160;2024-03-07T11:07:22;28.70;;;16.60;;
5704;SDS011;2877;48.238;11.160;2024-03-07T11:09:51;29.83;;;18.30;;
5704;SDS011;2877;48.238;11.160;2024-03-07T11:12:23;27.20;;;17.70;;
5704;SDS011;2877;48.238;11.160;2024-03-07T11:14:51;31.13;;;18.67;;
5704;SDS011;2877;48.238;11.160;2024-03-07T11:17:19;33.90;;;19.80;;
5704;SDS011;2877;48.238;11.160;2024-03-07T11:19:47;32.57;;;18.60;;
5704;SDS011;2877;48.238;11.160;2024-03-07T11:22:30;34.37;;;18.90;;
5704;SDS011;2877;48.238;11.160;2024-03-07T11:25:00;31.30;;;19.67;;
5704;SDS011;2877;48.238;11.160;2024-03-07T11:27:31;28.43;;;17.83;;
5704;SDS011;2877;48.238;11.160;2024-03-07T11:30:04;30.90;;;18.37;;
5704;SDS011;2877;48.238;11.160;2024-03-07T11:32:39;26.57;;;17.80;;
5704;SDS011;2877;48.238;11.160;2024-03-07T11:35:12;28.63;;;17.60;;
5704;SDS011;2877;48.238;11.160;2024-03-07T11:37:41;27.93;;;18.77;;
5704;SDS011;2877;48.238;11.160;2024-03-07T11:42:46;33.20;;;18.50;;
5704;SDS011;2877;48.238;11.160;2024-03-07T11:45:16;28.40;;;18.60;;
5704;SDS011;2877;48.238;11.160;2024-03-07T11:47:56;28.93;;;18.30;;
5704;SDS011;2877;48.238;11.160;2024-03-07T11:50:38;26.83;;;16.97;;
5704;SDS011;2877;48.238;11.160;2024-03-07T11:53:05;29.60;;;17.47;;
5704;SDS011;2877;48.238;11.160;2024-03-07T11:55:33;33.30;;;18.93;;
5704;SDS011;2877;48.238;11.160;2024-03-07T11:58:10;30.97;;;17.97;;
5704;SDS011;2877;48.238;11.160;2024-03-07T12:00:43;28.90;;;17.67;;
5704;SDS011;2877;48.238;11.160;2024-03-07T12:03:13;26.20;;;16.47;;
5704;SDS011;2877;48.238;11.160;2024-03-07T12:05:42;31.37;;;17.33;;
5704;SDS011;2877;48.238;11.160;2024-03-07T12:08:08;30.67;;;18.67;;
5704;SDS011;2877;48.238;11.160;2024-03-07T12:10:35;27.50;;;16.93;;
5704;SDS011;2877;48.238;11.160;2024-03-07T12:13:03;25.33;;;17.27;;
5704;SDS011;2877;48.238;11.160;2024-03-07T12:15:30;24.80;;;15.67;;
5704;SDS011;2877;48.238;11.160;2024-03-07T12:17:57;25.70;;;15.87;;
5704;SDS011;2877;48.238;11.160;2024-03-07T12:20:22;25.87;;;16.17;;
5704;SDS011;2877;48.238;11.160;2024-03-07T12:22:59;25.50;;;15.40;;
5704;SDS011;2877;48.238;11.160;2024-03-07T12:25:30;24.93;;;15.20;;
5704;SDS011;2877;48.238;11.160;2024-03-07T12:27:59;31.70;;;15.30;;
5704;SDS011;2877;48.238;11.160;2024-03-07T12:30:52;24.13;;;14.97;;
5704;SDS011;2877;48.238;11.160;2024-03-07T12:33:19;21.50;;;14.10;;
5704;SDS011;2877;48.238;11.160;2024-03-07T12:35:46;23.30;;;14.67;;
5704;SDS011;2877;48.238;11.160;2024-03-07T12:38:14;23.10;;;14.20;;
5704;SDS011;2877;48.238;11.160;2024-03-07T12:40:44;23.00;;;13.00;;
5704;SDS011;2877;48.238;11.160;2024-03-07T12:43:17;19.60;;;13.23;;
5704;SDS011;2877;48.238;11.160;2024-03-07T12:45:52;25.70;;;12.80;;
5704;SDS011;2877;48.238;11.160;2024-03-07T12:48:19;19.67;;;12.93;;
5704;SDS011;2877;48.238;11.160;2024-03-07T12:50:49;22.00;;;13.50;;
5704;SDS011;2877;48.238;11.160;2024-03-07T12:53:21;27.17;;;13.33;;
5704;SDS011;2877;48.238;11.160;2024-03-07T12:55:49;22.40;;;14.97;;
5704;SDS011;2877;48.238;11.160;2024-03-07T12:58:14;23.50;;;14.77;;
5704;SDS011;2877;48.238;11.160;2024-03-07T13:00:40;24.40;;;15.00;;
5704;SDS011;2877;48.238;11.160;2024-03-07T13:03:07;21.97;;;14.27;;
5704;SDS011;2877;48.238;11.160;2024-03-07T13:05:34;24.17;;;15.20;;
5704;SDS011;2877;48.238;11.160;2024-03-07T13:08:05;20.83;;;14.50;;
5704;SDS011;2877;48.238;11.160;2024-03-07T13:10:31;26.73;;;15.07;;
5704;SDS011;2877;48.238;11.160;2024-03-07T13:12:56;22.70;;;14.20;;
5704;SDS011;2877;48.238;11.160;2024-03-07T13:15:22;21.87;;;13.67;;
5704;SDS011;2877;48.238;11.160;2024-03-07T13:17:49;23.57;;;14.50;;
5704;SDS011;2877;48.238;11.160;2024-03-07T13:20:17;23.23;;;14.50;;
5704;SDS011;2877;48.238;11.160;2024-03-07T13:22:46;22.67;;;15.07;;
5704;SDS011;2877;48.238;11.160;2024-03-07T13:25:14;23.20;;;14.70;;
5704;SDS011;2877;48.238;11.160;2024-03-07T13:27:43;24.20;;;15.27;;
5704;SDS011;2877;48.238;11.160;2024-03-07T13:30:16;25.43;;;16.00;;
5704;SDS011;2877;48.238;11.160;2024-03-07T13:32:48;23.00;;;13.83;;
5704;SDS011;2877;48.238;11.160;2024-03-07T13:35:15;23.40;;;13.90;;
5704;SDS011;2877;48.238;11.160;2024-03-07T13:37:40;21.10;;;13.50;;
5704;SDS011;2877;48.238;11.160;2024-03-07T13:40:06;20.90;;;13.17;;
5704;SDS011;2877;48.238;11.160;2024-03-07T13:42:47;23.70;;;13.80;;
5704;SDS011;2877;48.238;11.160;2024-03-07T13:45:21;21.60;;;13.00;;
5704;SDS011;2877;48.238;11.160;2024-03-07T13:47:51;21.10;;;12.50;;
5704;SDS011;2877;48.238;11.160;2024-03-07T13:50:19;21.23;;;12.73;;
5704;SDS011;2877;48.238;11.160;2024-03-07T13:52:50;22.90;;;12.10;;
5704;SDS011;2877;48.238;11.160;2024-03-07T13:55:33;18.40;;;12.10;;
5704;SDS011;2877;48.238;11.160;2024-03-07T14:01:13;17.33;;;11.40;;
5704;SDS011;2877;48.238;11.160;2024-03-07T14:03:51;20.20;;;11.90;;
5704;SDS011;2877;48.238;11.160;2024-03-07T14:09:46;22.47;;;14.70;;
5704;SDS011;2877;48.238;11.160;2024-03-07T14:21:31;23.07;;;14.27;;
5704;SDS011;2877;48.238;11.160;2024-03-07T14:27:30;21.80;;;13.70;;
5704;SDS011;2877;48.238;11.160;2024-03-07T14:32:52;21.70;;;14.13;;
5704;SDS011;2877;48.238;11.160;2024-03-07T14:40:53;23.07;;;13.70;;
5704;SDS011;2877;48.238;11.160;2024-03-07T14:43:21;20.93;;;13.27;;
5704;SDS011;2877;48.238;11.160;2024-03-07T14:45:47;21.50;;;12.83;;
5704;SDS011;2877;48.238;11.160;2024-03-07T14:48:13;21.67;;;11.97;;
5704;SDS011;2877;48.238;11.160;2024-03-07T14:50:43;21.43;;;13.70;;
5704;SDS011;2877;48.238;11.160;2024-03-07T14:53:11;22.53;;;12.97;;
5704;SDS011;2877;48.238;11.160;2024-03-07T14:55:38;23.20;;;13.30;;
5704;SDS011;2877;48.238;11.160;2024-03-07T14:58:05;20.70;;;13.27;;
5704;SDS011;2877;48.238;11.160;2024-03-07T15:00:34;21.40;;;12.40;;
5704;SDS011;2877;48.238;11.160;2024-03-07T15:03:06;20.20;;;12.30;;
5704;SDS011;2877;48.238;11.160;2024-03-07T15:05:34;20.93;;;13.30;;
5704;SDS011;2877;48.238;11.160;2024-03-07T15:08:00;21.43;;;13.07;;
5704;SDS011;2877;48.238;11.160;2024-03-07T15:10:27;20.53;;;12.80;;
5704;SDS011;2877;48.238;11.160;2024-03-07T15:12:56;18.53;;;11.80;;
5704;SDS011;2877;48.238;11.160;2024-03-07T15:15:22;25.83;;;12.90;;
5704;SDS011;2877;48.238;11.160;2024-03-07T15:17:49;23.93;;;13.90;;